Time;durP1;ratioP1;P1;durP2;ratioP2;P2;SDS_P1;SDS_P2;PMS_P1;PMS_P2;Temp;Humidity;BMP_temperature;BMP_pressure;BME280_temperature;BME280_humidity;BME280_pressure;Samples;Min_cycle;Max_cycle;Signal;HPM_P1;HPM_P2
2024/04/13 00:00:20;;;;;;;8.35;3.45;;;;;;;9.60;100.00;100085.59;5337741;26;20085;-78
2024/04/13 00:02:45;;;;;;;10.85;3.70;;;;;;;9.63;100.00;100098.75;5263396;27;19995;-78
2024/04/13 00:05:10;;;;;;;6.43;3.42;;;;;;;9.60;100.00;100096.38;5306675;26;20258;-77
2024/04/13 00:07:37;;;;;;;7.82;3.08;;;;;;;9.55;100.00;100071.72;5279133;26;20265;-77
2024/04/13 00:10:04;;;;;;;4.80;2.97;;;;;;;9.65;100.00;100104.84;5284924;26;20048;-77
2024/04/13 00:12:30;;;;;;;6.82;3.90;;;;;;;9.57;100.00;100097.56;5272001;26;20221;-78
2024/04/13 00:14:55;;;;;;;10.85;3.70;;;;;;;9.36;100.00;100075.56;5276737;27;20207;-77
2024/04/13 00:17:24;;;;;;;8.32;4.43;;;;;;;9.39;100.00;100084.16;5277992;26;20017;-78
2024/04/13 00:19:50;;;;;;;6.50;3.75;;;;;;;9.52;100.00;100089.09;5281089;27;20211;-78
2024/04/13 00:22:17;;;;;;;9.40;4.20;;;;;;;9.42;100.00;100083.00;5289233;27;20010;-78
2024/04/13 00:24:43;;;;;;;12.63;4.45;;;;;;;9.48;100.00;100089.59;5279955;26;20361;-77
2024/04/13 00:27:08;;;;;;;9.68;3.83;;;;;;;9.51;100.00;100092.81;5278082;26;19999;-76
2024/04/13 00:29:34;;;;;;;7.70;3.88;;;;;;;9.35;100.00;100073.84;5263598;26;20226;-77
2024/04/13 00:31:59;;;;;;;5.30;3.40;;;;;;;9.05;100.00;100042.88;5275495;27;19999;-77
2024/04/13 00:34:25;;;;;;;6.35;3.30;;;;;;;9.09;100.00;100071.22;5281830;26;19995;-77
2024/04/13 00:36:50;;;;;;;4.30;3.05;;;;;;;9.11;100.00;100067.34;5282689;26;20002;-78
2024/04/13 00:39:16;;;;;;;6.90;3.42;;;;;;;9.09;100.00;100055.91;5273264;26;19991;-77
2024/04/13 00:41:41;;;;;;;4.75;3.03;;;;;;;9.05;100.00;100038.31;5281540;26;19999;-78
2024/04/13 00:44:07;;;;;;;5.45;3.13;;;;;;;9.19;100.00;100067.38;5285391;27;19994;-77
2024/04/13 00:46:32;;;;;;;7.80;3.38;;;;;;;9.14;100.00;100071.59;5309880;26;19998;-77
2024/04/13 00:48:59;;;;;;;9.35;3.80;;;;;;;8.96;100.00;100050.94;5278009;26;20002;-77
2024/04/13 00:51:26;;;;;;;4.32;2.88;;;;;;;9.03;100.00;100066.50;5280598;26;20002;-77
2024/04/13 00:53:53;;;;;;;6.75;3.35;;;;;;;8.96;100.00;100061.75;5273545;26;20031;-76
2024/04/13 00:56:19;;;;;;;5.60;3.55;;;;;;;8.95;100.00;100043.84;5280307;26;20261;-77
2024/04/13 00:58:45;;;;;;;7.78;3.60;;;;;;;9.00;100.00;100052.31;5287709;26;19990;-78
2024/04/13 01:01:13;;;;;;;6.78;3.33;;;;;;;9.06;100.00;100056.19;5278934;27;20052;-77
2024/04/13 01:03:43;;;;;;;5.47;3.58;;;;;;;8.80;100.00;100026.56;5279101;26;20121;-77
2024/04/13 01:06:10;;;;;;;5.65;2.97;;;;;;;8.93;100.00;100055.81;5280034;26;20002;-76
2024/04/13 01:08:35;;;;;;;6.25;2.88;;;;;;;8.99;100.00;100058.72;5285969;26;19994;-76
2024/04/13 01:11:01;;;;;;;5.57;3.17;;;;;;;8.73;100.00;100033.63;5286546;26;20110;-76
2024/04/13 01:13:26;;;;;;;7.30;2.78;;;;;;;8.74;100.00;100038.00;5282706;26;20009;-77
2024/04/13 01:15:52;;;;;;;5.38;3.35;;;;;;;8.75;100.00;100050.50;5281222;26;19995;-77
2024/04/13 01:18:18;;;;;;;10.13;3.38;;;;;;;8.67;100.00;100043.22;5280470;26;19995;-77
2024/04/13 01:20:46;;;;;;;8.70;3.33;;;;;;;8.76;100.00;100065.69;5278061;26;20010;-77
2024/04/13 01:23:14;;;;;;;5.47;3.40;;;;;;;8.54;100.00;100051.75;5281390;26;20009;-77
2024/04/13 01:25:43;;;;;;;6.90;4.00;;;;;;;8.66;100.00;100073.06;5278610;26;20013;-76
2024/04/13 01:28:12;;;;;;;13.70;4.40;;;;;;;8.59;100.00;100072.00;5279603;26;19999;-77
2024/04/13 01:30:39;;;;;;;6.50;4.35;;;;;;;8.50;100.00;100060.31;5275685;26;20031;-76
2024/04/13 01:33:04;;;;;;;15.27;5.00;;;;;;;8.62;100.00;100085.16;5297485;26;20005;-77
2024/04/13 01:35:31;;;;;;;7.03;4.30;;;;;;;8.72;100.00;100083.19;5280556;27;19998;-77
2024/04/13 01:37:56;;;;;;;9.60;4.10;;;;;;;8.62;100.00;100037.47;5276768;26;20002;-77
2024/04/13 01:40:22;;;;;;;6.78;4.03;;;;;;;8.46;100.00;100032.81;5280627;26;20238;-77
2024/04/13 01:42:48;;;;;;;7.60;4.80;;;;;;;8.73;100.00;100076.81;5285452;26;20010;-77
2024/04/13 01:45:13;;;;;;;13.77;7.00;;;;;;;8.74;100.00;100067.69;5279896;26;19994;-77
2024/04/13 01:47:39;;;;;;;7.97;4.93;;;;;;;8.61;100.00;100073.53;5281759;26;20011;-77
2024/04/13 01:50:05;;;;;;;8.32;4.00;;;;;;;8.35;100.00;100041.97;5279284;26;20156;-77
2024/04/13 01:52:30;;;;;;;7.15;4.32;;;;;;;8.60;100.00;100054.81;5277101;27;19999;-77
2024/04/13 01:54:56;;;;;;;5.20;3.90;;;;;;;8.83;100.00;100079.38;5285901;26;20107;-77
2024/04/13 01:57:22;;;;;;;6.50;4.00;;;;;;;8.52;100.00;100040.28;5279919;26;19994;-77
2024/04/13 01:59:47;;;;;;;8.95;5.05;;;;;;;8.65;100.00;100068.69;5285792;27;19998;-77
2024/04/13 02:02:12;;;;;;;8.25;4.30;;;;;;;8.63;100.00;100059.88;5289328;26;20202;-78
2024/04/13 02:04:38;;;;;;;7.85;4.00;;;;;;;8.80;100.00;100075.13;5282212;26;20177;-77
2024/04/13 02:07:07;;;;;;;8.27;4.60;;;;;;;8.67;100.00;100061.25;5282516;26;20000;-77
2024/04/13 02:09:33;;;;;;;13.32;4.60;;;;;;;8.53;100.00;100066.22;5278761;26;20010;-78
2024/04/13 02:11:58;;;;;;;7.68;4.57;;;;;;;8.46;100.00;100073.28;5284700;27;19994;-78
2024/04/13 02:14:23;;;;;;;16.95;4.78;;;;;;;8.20;100.00;100064.28;5304863;26;19994;-77
2024/04/13 02:16:50;;;;;;;9.00;3.88;;;;;;;7.94;100.00;100040.84;5281741;26;19997;-77
2024/04/13 02:19:15;;;;;;;8.50;4.43;;;;;;;7.81;100.00;100037.72;5277146;26;19995;-77
2024/04/13 02:21:40;;;;;;;11.73;4.65;;;;;;;7.92;100.00;100080.56;5275761;26;20026;-77
2024/04/13 02:24:06;;;;;;;6.93;4.57;;;;;;;7.91;100.00;100081.56;5283566;27;19998;-75
2024/04/13 02:26:31;;;;;;;10.27;4.68;;;;;;;8.09;100.00;100093.16;5278707;26;19995;-78
2024/04/13 02:28:58;;;;;;;7.95;4.55;;;;;;;7.78;100.00;100048.78;5278832;26;20102;-77
2024/04/13 02:31:23;;;;;;;9.57;4.05;;;;;;;7.84;100.00;100072.41;5276094;26;20068;-77
2024/04/13 02:33:48;;;;;;;7.28;3.92;;;;;;;7.76;100.00;100069.66;5282530;26;19995;-77
2024/04/13 02:36:14;;;;;;;9.35;4.30;;;;;;;7.77;100.00;100074.03;5287678;26;20004;-78
2024/04/13 02:38:39;;;;;;;5.28;4.00;;;;;;;7.51;100.00;100034.38;5281588;26;20064;-76
2024/04/13 02:41:05;;;;;;;6.70;4.40;;;;;;;7.71;100.00;100063.88;5277313;26;20014;-77
2024/04/13 02:43:31;;;;;;;10.27;4.68;;;;;;;7.60;100.00;100056.88;5285081;26;20021;-77
2024/04/13 02:46:07;;;;;;;8.18;4.45;;;;;;;7.73;100.00;100067.25;5281316;26;20106;-77
2024/04/13 02:48:32;;;;;;;7.28;3.80;;;;;;;7.80;100.00;100081.81;5277066;26;20370;-77
2024/04/13 02:50:59;;;;;;;6.90;3.83;;;;;;;7.84;100.00;100077.81;5290683;26;20008;-77
2024/04/13 02:53:24;;;;;;;11.18;4.15;;;;;;;7.75;100.00;100073.31;5283422;26;19994;-78
2024/04/13 02:55:49;;;;;;;8.73;4.85;;;;;;;7.75;100.00;100089.50;5281791;26;20007;-76
2024/04/13 02:58:15;;;;;;;10.77;4.78;;;;;;;7.63;100.00;100051.19;5285206;26;20210;-77
2024/04/13 03:00:40;;;;;;;10.05;4.05;;;;;;;7.70;100.00;100079.16;5276889;26;20005;-77
2024/04/13 03:03:06;;;;;;;7.35;4.72;;;;;;;7.69;100.00;100077.50;5276589;26;19995;-77
2024/04/13 03:05:31;;;;;;;9.48;4.65;;;;;;;7.65;100.00;100071.56;5279995;26;20011;-77
2024/04/13 03:07:56;;;;;;;11.77;4.32;;;;;;;7.71;100.00;100086.28;5276031;26;20006;-77
2024/04/13 03:10:22;;;;;;;9.77;4.43;;;;;;;7.73;100.00;100091.50;5280908;26;19995;-77
2024/04/13 03:12:47;;;;;;;10.73;4.07;;;;;;;7.65;100.00;100085.03;5379099;21;20041;-74
2024/04/13 03:15:12;;;;;;;8.88;4.30;;;;;;;7.68;100.00;100084.72;5375686;26;20249;-74
2024/04/13 03:17:37;;;;;;;11.85;4.40;;;;;;;7.63;100.00;100068.19;5408735;26;20042;-75
2024/04/13 03:20:05;;;;;;;6.85;4.07;;;;;;;7.55;100.00;100078.03;5343758;26;20141;-74
2024/04/13 03:22:31;;;;;;;8.68;4.47;;;;;;;7.45;100.00;100064.63;5403778;26;20029;-75
2024/04/13 03:24:57;;;;;;;8.90;4.57;;;;;;;7.46;100.00;100083.31;5394257;26;20146;-74
2024/04/13 03:27:22;;;;;;;6.50;4.30;;;;;;;7.52;100.00;100071.09;5332493;26;20055;-75
2024/04/13 03:29:48;;;;;;;7.85;4.05;;;;;;;7.52;100.00;100071.09;5356745;26;20111;-75
2024/04/13 03:32:13;;;;;;;9.23;4.28;;;;;;;7.49;100.00;100066.00;5340814;26;19998;-74
2024/04/13 03:34:38;;;;;;;9.45;4.55;;;;;;;7.52;100.00;100079.19;5340846;26;19997;-75
2024/04/13 03:37:04;;;;;;;9.27;4.25;;;;;;;7.52;100.00;100089.09;5368208;26;20022;-74
2024/04/13 03:39:29;;;;;;;8.18;4.70;;;;;;;7.46;100.00;100066.31;5343635;26;19997;-75
2024/04/13 03:41:55;;;;;;;9.00;4.50;;;;;;;7.41;100.00;100071.31;5418422;26;19998;-74
2024/04/13 03:44:21;;;;;;;8.05;4.65;;;;;;;7.38;100.00;100074.31;5385569;26;20098;-75
2024/04/13 03:46:46;;;;;;;9.02;4.45;;;;;;;7.28;100.00;100078.91;5337301;26;20001;-74
2024/04/13 03:49:12;;;;;;;7.15;4.50;;;;;;;7.22;100.00;100065.03;5330945;26;20009;-75
2024/04/13 03:51:37;;;;;;;12.85;5.07;;;;;;;7.12;100.00;100055.34;5347735;26;20001;-74
2024/04/13 03:54:03;;;;;;;7.85;4.32;;;;;;;7.16;100.00;100071.03;5336234;26;20002;-75
2024/04/13 03:56:28;;;;;;;9.32;4.63;;;;;;;7.03;100.00;100057.09;5334357;26;20206;-74
2024/04/13 03:58:55;;;;;;;5.78;4.07;;;;;;;7.17;100.00;100071.88;5379868;26;20005;-74
2024/04/13 04:01:20;;;;;;;7.93;4.13;;;;;;;7.06;100.00;100074.78;5347287;26;19997;-75
2024/04/13 04:03:45;;;;;;;7.22;4.38;;;;;;;7.01;100.00;100092.22;5326374;26;20009;-75
2024/04/13 04:06:11;;;;;;;7.55;4.45;;;;;;;6.93;100.00;100070.59;5320002;26;20012;-74
2024/04/13 04:08:36;;;;;;;9.60;4.78;;;;;;;6.98;100.00;100079.06;5373486;26;19994;-74
2024/04/13 04:11:01;;;;;;;15.05;4.35;;;;;;;6.89;100.00;100061.13;5347645;26;20052;-74
2024/04/13 04:13:27;;;;;;;8.57;4.63;;;;;;;6.95;100.00;100076.66;5380595;26;20008;-74
2024/04/13 04:15:52;;;;;;;11.52;4.97;;;;;;;6.90;100.00;100054.75;5344240;26;20005;-74
2024/04/13 04:18:18;;;;;;;8.40;4.60;;;;;;;7.01;100.00;100064.47;5366037;26;19994;-74
2024/04/13 04:20:47;;;;;;;6.22;4.40;;;;;;;6.94;100.00;100064.22;5366494;26;20001;-75
2024/04/13 04:23:13;;;;;;;9.45;4.32;;;;;;;6.87;100.00;100070.34;5419511;26;20221;-75
2024/04/13 04:25:39;;;;;;;8.65;4.38;;;;;;;6.79;100.00;100074.63;5372873;26;20050;-75
2024/04/13 04:28:05;;;;;;;6.00;4.47;;;;;;;6.74;100.00;100058.06;5338895;26;19997;-74
2024/04/13 04:30:30;;;;;;;5.18;3.78;;;;;;;6.88;100.00;100072.88;5373740;26;20093;-75
2024/04/13 04:32:56;;;;;;;6.60;4.18;;;;;;;6.92;100.00;100090.41;5374571;26;19994;-74
2024/04/13 04:35:21;;;;;;;6.38;4.25;;;;;;;6.87;100.00;100075.72;5352630;26;19993;-75
2024/04/13 04:37:47;;;;;;;7.57;4.43;;;;;;;6.82;100.00;100067.25;5392967;26;20004;-75
2024/04/13 04:40:12;;;;;;;8.02;4.63;;;;;;;6.82;100.00;100067.25;5364378;26;20005;-75
2024/04/13 04:42:37;;;;;;;7.93;3.95;;;;;;;6.90;100.00;100073.56;5374167;26;21255;-74
2024/04/13 04:45:05;;;;;;;10.50;4.43;;;;;;;6.93;100.00;100072.44;5340249;26;20005;-74
2024/04/13 04:47:32;;;;;;;7.18;4.60;;;;;;;6.98;100.00;100065.59;5382048;26;19997;-75
2024/04/13 04:49:58;;;;;;;9.38;4.20;;;;;;;7.13;100.00;100082.09;5371852;26;20002;-76
2024/04/13 04:52:23;;;;;;;11.00;4.30;;;;;;;7.08;100.00;100057.50;5385445;26;20102;-80
2024/04/13 04:54:49;;;;;;;8.00;3.78;;;;;;;7.23;100.00;100066.75;5349453;26;20001;-81
2024/04/13 04:57:14;;;;;;;8.70;5.18;;;;;;;7.30;100.00;100066.13;5377810;26;19993;-81
2024/04/13 04:59:39;;;;;;;12.82;3.65;;;;;;;7.22;100.00;100058.81;5405752;26;20015;-82
2024/04/13 05:02:05;;;;;;;10.90;3.88;;;;;;;7.32;100.00;100054.22;5391159;26;20042;-81
2024/04/13 05:04:30;;;;;;;6.55;3.88;;;;;;;7.38;100.00;100053.59;5417167;26;19997;-82
2024/04/13 05:06:55;;;;;;;7.10;3.70;;;;;;;7.50;100.00;100066.88;5390973;26;19989;-80
2024/04/13 05:09:21;;;;;;;6.22;3.70;;;;;;;7.51;100.00;100060.47;5334167;26;20150;-80
2024/04/13 05:11:46;;;;;;;9.52;3.60;;;;;;;7.39;100.00;100023.00;5366692;26;19998;-81
2024/04/13 05:14:17;;;;;;;7.53;4.03;;;;;;;7.64;100.00;100064.47;5389731;26;19998;-81
2024/04/13 05:16:42;;;;;;;8.63;4.32;;;;;;;7.67;100.00;100060.63;5390882;26;20008;-80
2024/04/13 05:19:07;;;;;;;7.57;4.15;;;;;;;7.64;100.00;100052.84;5421150;26;19997;-81
2024/04/13 05:21:33;;;;;;;6.68;4.00;;;;;;;7.69;100.00;100055.94;5386149;26;20062;-80
2024/04/13 05:23:58;;;;;;;7.22;4.18;;;;;;;7.75;100.00;100065.25;5398521;26;20008;-81
2024/04/13 05:26:27;;;;;;;11.35;4.30;;;;;;;7.73;100.00;100067.25;5371941;26;20017;-80
2024/04/13 05:28:52;;;;;;;7.78;3.13;;;;;;;7.73;100.00;100061.84;5382027;26;20217;-79
2024/04/13 05:31:18;;;;;;;8.10;4.50;;;;;;;7.80;100.00;100055.69;5393403;26;20008;-79
2024/04/13 05:33:44;;;;;;;6.63;4.10;;;;;;;7.85;100.00;100049.84;5380081;26;19994;-76
2024/04/13 05:36:10;;;;;;;6.93;4.05;;;;;;;7.89;100.00;100029.69;5335299;26;20001;-76
2024/04/13 05:38:35;;;;;;;9.82;4.20;;;;;;;8.25;100.00;100040.38;5377381;26;20097;-77
2024/04/13 05:41:01;;;;;;;10.18;4.90;;;;;;;8.61;100.00;100040.31;5380999;26;20009;-77
2024/04/13 05:43:26;;;;;;;10.38;5.70;;;;;;;8.96;100.00;100001.50;5379470;26;19997;-77
2024/04/13 05:45:51;;;;;;;8.63;5.35;;;;;;;10.90;100.00;100021.59;5349536;26;20016;-76
2024/04/13 05:48:19;;;;;;;12.38;5.00;;;;;;;13.16;100.00;100020.00;5341480;26;20013;-77
2024/04/13 05:50:58;;;;;;;14.00;4.47;;;;;;;15.37;100.00;100009.81;5403348;26;20005;-77
2024/04/13 05:53:24;;;;;;;7.03;3.38;;;;;;;17.27;100.00;100008.28;5375265;26;21050;-75
2024/04/13 05:55:50;;;;;;;5.63;2.92;;;;;;;18.59;100.00;100011.97;5338299;26;20117;-78
2024/04/13 05:58:15;;;;;;;6.35;2.78;;;;;;;20.20;95.64;100013.47;5386320;26;20005;-76
2024/04/13 06:00:44;;;;;;;4.95;2.60;;;;;;;21.19;83.66;100010.81;5377034;26;19994;-75
2024/04/13 06:03:09;;;;;;;7.55;3.08;;;;;;;21.23;76.63;100020.28;5373951;26;19989;-76
2024/04/13 06:05:35;;;;;;;10.32;3.17;;;;;;;22.50;67.29;100005.25;5340569;26;20001;-76
2024/04/13 06:08:01;;;;;;;8.70;3.35;;;;;;;22.56;64.80;99986.00;5377320;26;20017;-76
2024/04/13 06:10:26;;;;;;;6.50;3.03;;;;;;;22.48;63.37;100001.09;5374379;26;19993;-78
2024/04/13 06:12:51;;;;;;;5.50;2.65;;;;;;;22.46;64.79;100008.78;5374972;26;20008;-76
2024/04/13 06:15:17;;;;;;;6.78;2.42;;;;;;;23.13;63.98;100013.31;5379968;26;20008;-76
2024/04/13 06:17:42;;;;;;;6.80;2.92;;;;;;;23.68;60.81;100017.81;5372609;26;19989;-76
2024/04/13 06:20:21;;;;;;;9.77;3.05;;;;;;;23.73;61.02;100028.13;5502648;25;20357;-60
2024/04/13 06:22:47;;;;;;;4.25;2.20;;;;;;;24.54;59.84;100027.22;5466410;26;19998;-59
2024/04/13 06:25:12;;;;;;;8.93;2.78;;;;;;;24.88;57.97;100023.03;5459992;26;20027;-59
2024/04/13 06:27:41;;;;;;;5.38;2.67;;;;;;;25.21;56.48;100022.97;5467488;26;20075;-60
2024/04/13 06:30:07;;;;;;;7.38;3.47;;;;;;;25.96;53.24;100038.19;5458746;26;20007;-60
2024/04/13 06:32:33;;;;;;;7.43;3.40;;;;;;;24.85;55.32;100031.03;5469679;26;20000;-60
2024/04/13 06:34:59;;;;;;;5.72;2.63;;;;;;;25.93;53.27;100035.09;5469184;26;20035;-60
2024/04/13 06:37:25;;;;;;;6.30;2.40;;;;;;;26.38;52.60;100031.53;5482313;26;20438;-59
2024/04/13 06:39:50;;;;;;;7.93;2.30;;;;;;;26.79;51.20;100031.50;5472895;26;20010;-60
2024/04/13 06:42:15;;;;;;;4.10;2.35;;;;;;;27.30;50.17;100031.41;5462008;26;19994;-60
2024/04/13 06:44:41;;;;;;;6.70;2.50;;;;;;;26.54;50.48;100037.09;5465260;26;19994;-60
2024/04/13 06:47:06;;;;;;;5.03;2.60;;;;;;;27.60;49.69;100026.78;5475994;26;19994;-60
2024/04/13 06:49:31;;;;;;;5.85;2.20;;;;;;;27.06;49.00;100036.72;5454327;26;19995;-60
2024/04/13 06:51:58;;;;;;;4.80;1.92;;;;;;;27.67;49.32;100037.59;5461440;26;20465;-60
2024/04/13 06:54:23;;;;;;;7.60;2.40;;;;;;;27.67;49.12;100038.44;5481145;26;19998;-60
2024/04/13 06:56:49;;;;;;;9.15;2.63;;;;;;;27.47;49.30;100035.75;5466848;26;20014;-60
2024/04/13 06:59:14;;;;;;;6.03;2.15;;;;;;;27.79;49.64;100037.25;5467343;26;20012;-58
2024/04/13 07:01:39;;;;;;;4.38;2.50;;;;;;;27.72;49.32;100035.63;5463523;26;20007;-60
2024/04/13 07:04:05;;;;;;;7.20;2.70;;;;;;;28.60;48.24;100028.31;5464448;26;20083;-60
2024/04/13 07:06:34;;;;;;;6.72;2.38;;;;;;;27.73;50.66;100037.28;5473893;26;20012;-59
2024/04/13 07:09:00;;;;;;;6.22;2.22;;;;;;;28.02;49.86;100027.41;5465268;25;19999;-60
2024/04/13 07:11:25;;;;;;;5.05;2.47;;;;;;;27.25;49.83;100031.41;5467920;26;20010;-60
2024/04/13 07:13:50;;;;;;;4.43;2.03;;;;;;;29.36;48.24;100033.34;5469156;26;20007;-58
2024/04/13 07:16:17;;;;;;;3.40;1.63;;;;;;;30.28;46.37;100027.31;5461017;26;19999;-58
2024/04/13 07:18:42;;;;;;;4.72;2.35;;;;;;;31.03;44.05;100028.22;5464697;26;21290;-60
2024/04/13 07:21:07;;;;;;;6.40;2.25;;;;;;;31.79;44.02;100022.16;5467266;26;20007;-60
2024/04/13 07:23:34;;;;;;;9.18;2.40;;;;;;;32.31;43.08;100022.59;5468740;26;20552;-59
2024/04/13 07:26:00;;;;;;;5.97;1.95;;;;;;;33.07;41.17;100022.59;5476932;26;20044;-60
2024/04/13 07:28:27;;;;;;;3.08;2.13;;;;;;;32.59;40.57;100025.28;5467736;26;20434;-60
2024/04/13 07:30:53;;;;;;;6.95;2.30;;;;;;;32.43;41.84;100022.00;5457263;26;20022;-60
2024/04/13 07:33:18;;;;;;;7.03;2.17;;;;;;;31.43;42.00;100022.94;5463695;26;20009;-60
2024/04/13 07:35:43;;;;;;;4.40;2.38;;;;;;;33.66;39.65;100004.59;5450096;26;19995;-60
2024/04/13 07:38:10;;;;;;;6.40;1.95;;;;;;;34.19;38.54;100012.72;5453814;26;20009;-60
2024/04/13 07:40:35;;;;;;;4.78;2.20;;;;;;;35.09;37.90;100020.28;5464969;26;20322;-61
2024/04/13 07:43:00;;;;;;;7.55;2.30;;;;;;;32.19;40.67;100020.38;5469489;26;20071;-61
2024/04/13 07:45:26;;;;;;;5.70;2.92;;;;;;;31.32;41.05;100022.31;5467034;26;20392;-60
2024/04/13 07:47:51;;;;;;;4.13;2.40;;;;;;;31.02;42.13;100023.75;5456630;26;19995;-59
2024/04/13 07:50:17;;;;;;;6.03;2.22;;;;;;;32.17;40.94;100019.84;5454462;26;20003;-59
2024/04/13 07:52:43;;;;;;;6.30;2.83;;;;;;;32.14;41.24;100016.88;5457959;26;20027;-59
2024/04/13 07:55:08;;;;;;;8.57;2.30;;;;;;;31.32;40.40;100011.13;5455947;26;19995;-59
2024/04/13 07:57:34;;;;;;;7.10;2.60;;;;;;;31.49;41.18;100001.28;5458205;26;20009;-58
2024/04/13 07:59:59;;;;;;;5.15;2.42;;;;;;;30.93;41.10;99997.69;5467883;26;19994;-59
2024/04/13 08:02:24;;;;;;;11.00;2.88;;;;;;;30.25;42.59;99990.81;5470813;26;19995;-60
2024/04/13 08:04:50;;;;;;;7.75;2.90;;;;;;;32.48;39.84;99985.50;5459524;26;20400;-59
2024/04/13 08:07:16;;;;;;;6.55;2.63;;;;;;;32.40;39.11;99995.47;5457665;26;20416;-60
2024/04/13 08:09:41;;;;;;;6.45;2.50;;;;;;;31.71;40.01;99994.94;5450720;26;20009;-59
2024/04/13 08:12:11;;;;;;;4.28;2.10;;;;;;;31.88;40.00;99989.47;5456882;26;19994;-60
2024/04/13 08:14:36;;;;;;;3.95;2.30;;;;;;;34.10;37.80;99989.41;5463226;26;20003;-59
2024/04/13 08:17:03;;;;;;;4.72;2.25;;;;;;;34.00;37.38;99986.91;5470207;26;19998;-60
2024/04/13 08:19:28;;;;;;;5.13;2.28;;;;;;;34.50;37.16;99991.16;5455125;26;20375;-60
2024/04/13 08:21:53;;;;;;;7.28;2.42;;;;;;;34.73;36.27;99984.16;5458569;26;19999;-61
2024/04/13 08:24:19;;;;;;;7.32;2.70;;;;;;;32.07;38.26;99984.56;5463504;26;20342;-60
2024/04/13 08:26:45;;;;;;;6.63;2.85;;;;;;;29.97;40.86;99990.66;5456551;26;20105;-60
2024/04/13 08:29:11;;;;;;;7.03;2.28;;;;;;;31.61;39.88;99980.00;5446361;26;20018;-60
2024/04/13 08:31:36;;;;;;;6.68;3.00;;;;;;;31.02;40.32;99984.63;5454925;26;20417;-59
2024/04/13 08:34:02;;;;;;;9.00;2.70;;;;;;;31.37;40.42;99971.03;5445447;26;20018;-59
2024/04/13 08:36:28;;;;;;;8.90;2.55;;;;;;;32.01;39.42;99974.59;5447739;26;20081;-59
2024/04/13 08:38:55;;;;;;;6.28;2.63;;;;;;;32.99;38.92;99970.06;5451800;26;20019;-60
2024/04/13 08:41:49;;;;;;;6.30;2.50;;;;;;;33.56;37.88;99975.72;5457349;26;20025;-60
2024/04/13 08:44:15;;;;;;;7.45;2.25;;;;;;;33.72;38.26;99966.78;5450865;26;20014;-61
2024/04/13 08:46:44;;;;;;;5.65;2.75;;;;;;;33.56;37.64;99963.63;5463103;26;20007;-60
2024/04/13 08:49:09;;;;;;;9.25;2.58;;;;;;;34.36;36.87;99969.72;5454534;26;20014;-60
2024/04/13 08:51:36;;;;;;;6.75;2.55;;;;;;;34.29;37.66;99962.94;5438662;26;19995;-60
2024/04/13 08:54:05;;;;;;;7.55;2.25;;;;;;;34.59;38.14;99959.09;5459989;26;20075;-57
2024/04/13 08:56:30;;;;;;;;;;;;;;;34.16;37.14;99962.81;5456249;26;20018;-59
2024/04/13 08:59:00;;;;;;;5.18;2.38;;;;;;;34.72;36.66;99960.03;5457768;26;19992;-57
2024/04/13 09:01:25;;;;;;;10.32;3.58;;;;;;;36.11;35.52;99949.88;5452685;26;20449;-56
2024/04/13 09:03:51;;;;;;;5.85;2.33;;;;;;;35.41;35.16;99947.59;5449364;26;20010;-58
2024/04/13 09:06:18;;;;;;;6.50;2.40;;;;;;;35.31;35.32;99948.81;5450539;26;20003;-59
2024/04/13 09:08:46;;;;;;;7.60;2.40;;;;;;;33.82;36.97;99949.59;5455461;26;20038;-58
2024/04/13 09:11:12;;;;;;;4.13;2.30;;;;;;;34.28;37.45;99938.84;5463716;26;20003;-58
2024/04/13 09:13:38;;;;;;;5.55;2.47;;;;;;;36.33;35.42;99921.28;5414709;21;20051;-75
2024/04/13 09:16:06;;;;;;;6.50;2.80;;;;;;;36.24;34.30;99923.38;5355856;26;20001;-76
2024/04/13 09:18:31;;;;;;;5.97;2.50;;;;;;;35.54;35.13;99923.97;5354347;26;20001;-74
2024/04/13 09:21:00;;;;;;;6.70;2.20;;;;;;;36.15;34.54;99920.63;5358075;26;20007;-76
2024/04/13 09:23:27;;;;;;;7.30;2.45;;;;;;;36.31;34.62;99923.59;5352486;26;19998;-76
2024/04/13 09:26:07;;;;;;;4.30;1.92;;;;;;;36.97;35.87;99924.63;5357902;26;20008;-76
2024/04/13 09:28:46;;;;;;;7.18;2.17;;;;;;;37.62;33.70;99919.84;5382021;26;19997;-77
2024/04/13 09:31:13;;;;;;;7.22;2.55;;;;;;;35.96;34.02;99923.97;5347808;26;20013;-75
2024/04/13 09:33:40;;;;;;;3.03;1.65;;;;;;;36.90;33.39;99913.13;5350943;26;20257;-75
2024/04/13 09:36:06;;;;;;;6.13;2.20;;;;;;;37.49;33.13;99904.94;5358459;26;20101;-76
2024/04/13 09:38:32;;;;;;;6.28;1.98;;;;;;;37.37;32.81;99912.63;5359062;26;20043;-76
2024/04/13 09:40:57;;;;;;;6.93;2.15;;;;;;;36.13;34.67;99906.09;5356196;26;20225;-78
2024/04/13 09:43:23;;;;;;;7.57;2.10;;;;;;;38.13;33.53;99911.66;5356572;26;19999;-78
2024/04/13 09:45:56;;;;;;;3.40;2.10;;;;;;;35.96;34.46;99895.78;5350560;26;20008;-80
2024/04/13 09:48:21;;;;;;;5.50;2.28;;;;;;;36.64;33.30;99892.56;5388149;26;20021;-78
2024/04/13 09:50:46;;;;;;;6.07;2.17;;;;;;;37.58;32.96;99887.88;5355949;26;19997;-77
2024/04/13 09:53:12;;;;;;;3.27;2.00;;;;;;;37.64;32.95;99885.63;5357821;26;19997;-77
2024/04/13 09:55:38;;;;;;;5.97;2.58;;;;;;;35.97;35.11;99880.56;5356911;26;20224;-76
2024/04/13 09:58:04;;;;;;;5.80;2.25;;;;;;;35.94;35.63;99874.78;5356752;26;20039;-69
2024/04/13 10:00:29;;;;;;;8.98;2.67;;;;;;;37.28;33.61;99878.88;5353260;26;19997;-69
2024/04/13 10:02:55;;;;;;;6.35;2.60;;;;;;;35.37;35.31;99881.91;5349537;26;20019;-70
2024/04/13 10:05:22;;;;;;;5.87;2.20;;;;;;;37.29;34.37;99870.06;5362843;26;19997;-70
2024/04/13 10:07:50;;;;;;;6.35;2.35;;;;;;;37.14;35.15;99872.81;5354544;26;20488;-70
2024/04/13 10:10:17;;;;;;;3.60;1.75;;;;;;;38.32;32.39;99870.53;5356604;26;19993;-70
2024/04/13 10:12:44;;;;;;;6.28;2.20;;;;;;;35.85;34.41;99868.44;5348196;26;20068;-69
2024/04/13 10:15:10;;;;;;;3.70;1.83;;;;;;;35.46;35.79;99874.22;5350285;26;20213;-69
2024/04/13 10:17:43;;;;;;;3.33;1.77;;;;;;;34.83;36.18;99853.66;5356244;26;19993;-70
2024/04/13 10:20:09;;;;;;;5.95;1.90;;;;;;;35.00;36.40;99858.31;5362030;26;19996;-81
2024/04/13 10:22:36;;;;;;;3.25;1.40;;;;;;;35.49;35.68;99845.38;5354572;26;20158;-74
2024/04/13 10:25:06;;;;;;;4.30;1.13;;;;;;;35.98;34.69;99841.94;5343240;26;20048;-72
2024/04/13 10:27:33;;;;;;;5.97;1.23;;;;;;;34.80;36.02;99851.53;5354228;26;20059;-74
2024/04/13 10:30:00;;;;;;;2.05;1.10;;;;;;;35.36;35.78;99851.31;5356144;26;19997;-73
2024/04/13 10:32:25;;;;;;;3.00;1.10;;;;;;;35.98;34.64;99827.84;5354869;26;19993;-74
2024/04/13 10:34:51;;;;;;;3.20;0.93;;;;;;;36.87;35.44;99844.16;5346150;26;20019;-68
2024/04/13 10:37:46;;;;;;;3.58;1.83;;;;;;;36.32;34.61;99840.72;5360756;26;20327;-68
2024/04/13 10:40:22;;;;;;;2.75;1.00;;;;;;;35.42;34.82;99842.28;5340776;26;20127;-68
2024/04/13 10:42:48;;;;;;;2.85;1.00;;;;;;;35.93;34.71;99834.53;5342043;26;20000;-69
2024/04/13 10:45:19;;;;;;;1.85;0.80;;;;;;;36.18;34.96;99834.59;5345492;26;20009;-69
2024/04/13 10:47:46;;;;;;;3.75;1.00;;;;;;;37.60;35.14;99834.69;5350982;26;20001;-70
2024/04/13 10:50:13;;;;;;;3.78;1.23;;;;;;;38.64;32.25;99834.59;5354561;26;20012;-71
2024/04/13 10:52:39;;;;;;;3.33;1.30;;;;;;;38.42;32.44;99832.44;5354159;26;20008;-70
2024/04/13 10:55:05;;;;;;;6.63;1.70;;;;;;;36.45;33.77;99821.81;5348183;26;20282;-69
2024/04/13 10:57:30;;;;;;;3.28;1.45;;;;;;;37.49;32.70;99827.88;5353023;26;20005;-69
2024/04/13 10:59:56;;;;;;;5.47;1.25;;;;;;;35.79;34.79;99817.13;5352528;26;20013;-69
2024/04/13 11:02:21;;;;;;;8.15;1.50;;;;;;;36.99;34.28;99800.97;5352165;26;20043;-70
2024/04/13 11:04:47;;;;;;;3.17;1.20;;;;;;;37.66;33.22;99824.78;5351861;26;20027;-70
2024/04/13 11:07:13;;;;;;;3.85;1.40;;;;;;;37.69;32.73;99826.06;5360128;26;20172;-70
2024/04/13 11:09:42;;;;;;;4.70;1.45;;;;;;;35.75;34.26;99808.53;5354952;26;20217;-70
2024/04/13 11:12:08;;;;;;;4.85;1.40;;;;;;;35.93;35.81;99811.19;5355144;26;19993;-69
2024/04/13 11:14:34;;;;;;;6.93;1.27;;;;;;;37.47;33.83;99807.66;5356291;26;19997;-70
2024/04/13 11:16:59;;;;;;;4.13;1.15;;;;;;;38.46;32.76;99808.72;5352065;26;20022;-69
2024/04/13 11:19:25;;;;;;;4.03;1.20;;;;;;;38.31;33.10;99804.72;5357146;26;20009;-70
2024/04/13 11:21:51;;;;;;;4.68;1.35;;;;;;;38.17;32.47;99797.88;5357617;26;20004;-70